Time;durP1;ratioP1;P1;durP2;ratioP2;P2;SDS_P1;SDS_P2;PMS_P1;PMS_P2;Temp;Humidity;BMP_temperature;BMP_pressure;BME280_temperature;BME280_humidity;BME280_pressure;Samples;Min_cycle;Max_cycle;Signal;HPM_P1;HPM_P2
2022/06/08 00:00:53;;;;;;;1.67;1.58;;;;;;;;;;4989619;28;20528;-76
2022/06/08 00:03:39;;;;;;;2.17;1.50;;;;;;;;;;4986523;28;20026;-75
2022/06/08 00:06:06;;;;;;;1.02;1.02;;;;;;;;;;4988287;28;20066;-76
2022/06/08 00:08:32;;;;;;;2.30;1.10;;;;;;;;;;4992669;28;20031;-74
2022/06/08 00:10:58;;;;;;;1.77;1.20;;;;;;;;;;4982865;28;20041;-75
2022/06/08 00:13:25;;;;;;;1.35;1.25;;;;;;;;;;4989224;28;20430;-75
2022/06/08 00:15:53;;;;;;;1.27;1.20;;;;;;;;;;4993191;28;20269;-74
2022/06/08 00:18:19;;;;;;;1.27;1.17;;;;;;;;;;4987693;28;20396;-75
2022/06/08 00:20:46;;;;;;;1.30;1.20;;;;;;;;;;4991676;28;20030;-75
2022/06/08 00:23:13;;;;;;;2.30;1.48;;;;;;;;;;4997109;28;20535;-76
2022/06/08 00:25:39;;;;;;;1.52;1.42;;;;;;;;;;4991411;28;20376;-76
2022/06/08 00:28:05;;;;;;;1.60;1.50;;;;;;;;;;4989851;28;20022;-75
2022/06/08 00:30:31;;;;;;;1.10;1.10;;;;;;;;;;4990624;28;20061;-75
2022/06/08 00:32:58;;;;;;;0.80;0.80;;;;;;;;;;4989585;28;20037;-75
2022/06/08 00:35:24;;;;;;;0.90;0.90;;;;;;;;;;4991828;28;20026;-75
2022/06/08 00:37:50;;;;;;;1.00;1.00;;;;;;;;;;4986349;28;20037;-75
2022/06/08 00:40:18;;;;;;;1.08;1.05;;;;;;;;;;4987921;28;20509;-74
2022/06/08 00:42:44;;;;;;;1.38;1.00;;;;;;;;;;4991026;28;20023;-76
2022/06/08 00:45:14;;;;;;;1.05;1.05;;;;;;;;;;4988803;28;20038;-76
2022/06/08 00:47:43;;;;;;;1.17;1.10;;;;;;;;;;5003204;28;20028;-75
2022/06/08 00:50:19;;;;;;;1.10;1.10;;;;;;;;;;4992089;28;20041;-75
2022/06/08 00:52:46;;;;;;;1.30;1.20;;;;;;;;;;4992242;28;20096;-75
2022/06/08 00:55:14;;;;;;;1.13;1.10;;;;;;;;;;4992464;28;20037;-75
2022/06/08 00:57:51;;;;;;;1.05;1.05;;;;;;;;;;4997429;28;20373;-75
2022/06/08 01:00:17;;;;;;;1.10;1.10;;;;;;;;;;4989038;28;20232;-75
2022/06/08 01:02:44;;;;;;;1.20;1.10;;;;;;;;;;4989145;28;20030;-74
2022/06/08 01:05:28;;;;;;;1.17;1.17;;;;;;;;;;4991456;28;20033;-76
2022/06/08 01:07:57;;;;;;;1.48;1.13;;;;;;;;;;4994841;28;20032;-75
2022/06/08 01:10:35;;;;;;;1.30;1.20;;;;;;;;;;4992865;28;20657;-77
2022/06/08 01:13:04;;;;;;;2.78;1.55;;;;;;;;;;4996377;28;20091;-76
2022/06/08 01:15:31;;;;;;;1.10;1.10;;;;;;;;;;4988940;28;20440;-76
2022/06/08 01:17:57;;;;;;;2.25;1.40;;;;;;;;;;4989429;28;20108;-75
2022/06/08 01:20:23;;;;;;;2.83;1.40;;;;;;;;;;4993191;28;20027;-75
2022/06/08 01:22:49;;;;;;;1.40;1.30;;;;;;;;;;4995357;28;20034;-75
2022/06/08 01:25:16;;;;;;;1.77;1.60;;;;;;;;;;4990280;28;20412;-76
2022/06/08 01:27:51;;;;;;;1.77;1.67;;;;;;;;;;4995405;28;20034;-75
2022/06/08 01:30:18;;;;;;;;;;;;;;;;;;4996703;28;20046;-76
2022/06/08 01:33:03;;;;;;;1.58;1.48;;;;;;;;;;4993899;28;19996;-75
2022/06/08 01:35:47;;;;;;;3.38;1.88;;;;;;;;;;4987910;28;20052;-75
2022/06/08 01:38:32;;;;;;;3.38;2.35;;;;;;;;;;4991652;28;20014;-75
2022/06/08 01:41:09;;;;;;;3.55;2.17;;;;;;;;;;4991801;28;20022;-76
2022/06/08 01:43:35;;;;;;;3.95;2.50;;;;;;;;;;5001883;28;20034;-74
2022/06/08 01:46:02;;;;;;;3.80;2.80;;;;;;;;;;4988663;28;20047;-75
2022/06/08 01:48:38;;;;;;;2.80;2.55;;;;;;;;;;4992477;28;20034;-75
2022/06/08 01:51:23;;;;;;;2.90;2.60;;;;;;;;;;4989287;28;20037;-75
2022/06/08 01:53:49;;;;;;;3.20;2.88;;;;;;;;;;5007112;28;20029;-74
2022/06/08 01:56:15;;;;;;;3.95;3.25;;;;;;;;;;4992439;28;20026;-76
2022/06/08 01:58:41;;;;;;;3.95;3.00;;;;;;;;;;4995661;28;20049;-75
2022/06/08 02:01:17;;;;;;;5.75;4.10;;;;;;;;;;4989097;28;20502;-76
2022/06/08 02:03:58;;;;;;;6.32;4.55;;;;;;;;;;4989871;28;20022;-76
2022/06/08 02:06:32;;;;;;;3.38;2.83;;;;;;;;;;4992661;28;20030;-76
2022/06/08 02:09:04;;;;;;;3.15;2.80;;;;;;;;;;4986136;28;20106;-76
2022/06/08 02:11:37;;;;;;;3.60;2.65;;;;;;;;;;4986397;28;20799;-76
2022/06/08 02:14:09;;;;;;;2.47;2.20;;;;;;;;;;4991540;28;20053;-75
2022/06/08 02:16:37;;;;;;;2.80;2.30;;;;;;;;;;4986974;28;20108;-75
2022/06/08 02:19:19;;;;;;;2.80;2.08;;;;;;;;;;4988240;28;20085;-76
2022/06/08 02:21:45;;;;;;;3.63;2.10;;;;;;;;;;4995909;28;20510;-75
2022/06/08 02:24:31;;;;;;;4.60;2.00;;;;;;;;;;4993497;28;20027;-76
2022/06/08 02:27:08;;;;;;;2.50;1.95;;;;;;;;;;4986273;28;20049;-76
2022/06/08 02:29:49;;;;;;;4.57;2.72;;;;;;;;;;4984206;28;20022;-75
2022/06/08 02:35:14;;;;;;;2.10;1.80;;;;;;;;;;4989709;28;20044;-75
2022/06/08 02:37:43;;;;;;;5.15;1.67;;;;;;;;;;4993682;28;20057;-74
2022/06/08 02:40:19;;;;;;;2.20;1.65;;;;;;;;;;4997634;28;20074;-75
2022/06/08 02:42:48;;;;;;;2.30;1.58;;;;;;;;;;4986923;28;20084;-74
2022/06/08 02:45:14;;;;;;;2.53;1.90;;;;;;;;;;4987530;28;20404;-75
2022/06/08 02:47:41;;;;;;;3.47;1.50;;;;;;;;;;5001400;28;20089;-76
2022/06/08 02:50:10;;;;;;;3.22;1.95;;;;;;;;;;4990886;28;20037;-75
2022/06/08 02:52:37;;;;;;;3.05;1.50;;;;;;;;;;4983816;28;20456;-75
2022/06/08 02:55:14;;;;;;;6.50;2.75;;;;;;;;;;4987426;28;20041;-74
2022/06/08 02:57:40;;;;;;;5.63;1.67;;;;;;;;;;4981128;28;20031;-75
2022/06/08 03:00:17;;;;;;;4.55;1.73;;;;;;;;;;4985395;28;20053;-76
2022/06/08 03:02:54;;;;;;;2.45;1.70;;;;;;;;;;4988181;28;20030;-76
2022/06/08 03:05:23;;;;;;;6.03;1.98;;;;;;;;;;4984980;28;20044;-76
2022/06/08 03:08:02;;;;;;;2.83;1.65;;;;;;;;;;4988229;28;20026;-75
2022/06/08 03:10:33;;;;;;;5.45;2.33;;;;;;;;;;4995372;28;20491;-76
2022/06/08 03:13:08;;;;;;;5.72;1.83;;;;;;;;;;4989159;28;20022;-75
2022/06/08 03:15:34;;;;;;;3.15;2.20;;;;;;;;;;4991420;28;20023;-75
2022/06/08 03:18:00;;;;;;;7.70;2.13;;;;;;;;;;4990898;28;20065;-76
2022/06/08 03:20:27;;;;;;;4.82;1.70;;;;;;;;;;4989941;28;20022;-75
2022/06/08 03:22:54;;;;;;;3.58;1.92;;;;;;;;;;4983873;28;20033;-76
2022/06/08 03:25:20;;;;;;;7.18;1.90;;;;;;;;;;4981101;28;20033;-75
2022/06/08 03:27:47;;;;;;;7.22;2.53;;;;;;;;;;4982302;28;20392;-75
2022/06/08 03:30:13;;;;;;;5.75;1.98;;;;;;;;;;4987139;28;20031;-75
2022/06/08 03:32:40;;;;;;;5.68;2.10;;;;;;;;;;4992057;28;20033;-75
2022/06/08 03:35:06;;;;;;;3.28;1.92;;;;;;;;;;4991565;28;20090;-74
2022/06/08 03:37:32;;;;;;;5.00;1.92;;;;;;;;;;4984480;28;20077;-75
2022/06/08 03:39:58;;;;;;;5.57;2.00;;;;;;;;;;4986738;28;20033;-75
2022/06/08 03:42:24;;;;;;;3.53;2.00;;;;;;;;;;4993534;28;20014;-75
2022/06/08 03:44:50;;;;;;;6.32;2.20;;;;;;;;;;4990037;28;20026;-75
2022/06/08 03:47:19;;;;;;;7.05;2.53;;;;;;;;;;5002675;28;20027;-75
2022/06/08 03:49:45;;;;;;;8.13;2.30;;;;;;;;;;4992453;28;20034;-75
2022/06/08 03:52:15;;;;;;;2.45;1.70;;;;;;;;;;4992066;28;20480;-76
2022/06/08 03:54:43;;;;;;;3.75;1.95;;;;;;;;;;4984964;28;20030;-75
2022/06/08 03:57:10;;;;;;;3.72;1.90;;;;;;;;;;4999501;28;20484;-75
2022/06/08 03:59:40;;;;;;;3.03;1.85;;;;;;;;;;4996479;28;20042;-75
2022/06/08 04:02:06;;;;;;;2.25;1.65;;;;;;;;;;4986237;28;20436;-75
2022/06/08 04:04:33;;;;;;;11.30;3.17;;;;;;;;;;4989544;28;20368;-75
2022/06/08 04:06:59;;;;;;;5.28;2.13;;;;;;;;;;4991435;28;20482;-76
2022/06/08 04:09:25;;;;;;;8.32;2.83;;;;;;;;;;4984776;28;20052;-75
2022/06/08 04:11:51;;;;;;;4.53;2.50;;;;;;;;;;4990540;28;20087;-74
2022/06/08 04:14:18;;;;;;;7.45;2.50;;;;;;;;;;4985663;28;20038;-75
2022/06/08 04:16:44;;;;;;;8.27;2.85;;;;;;;;;;4987969;28;20106;-74
2022/06/08 04:19:10;;;;;;;3.08;2.13;;;;;;;;;;4986560;28;20026;-75
2022/06/08 04:21:36;;;;;;;3.42;2.00;;;;;;;;;;4990291;28;20481;-76
2022/06/08 04:24:02;;;;;;;5.55;2.00;;;;;;;;;;4985213;28;20022;-75
2022/06/08 04:26:29;;;;;;;2.55;2.00;;;;;;;;;;4989316;28;20663;-75
2022/06/08 04:28:55;;;;;;;2.47;1.88;;;;;;;;;;4983978;28;20125;-75
2022/06/08 04:31:21;;;;;;;5.03;1.98;;;;;;;;;;4985327;28;20032;-74
2022/06/08 04:33:49;;;;;;;3.85;2.00;;;;;;;;;;4987014;28;20481;-74
2022/06/08 04:36:15;;;;;;;3.70;1.95;;;;;;;;;;4991114;28;20100;-76
2022/06/08 04:38:41;;;;;;;8.05;2.20;;;;;;;;;;4989362;28;20110;-75
2022/06/08 04:41:08;;;;;;;3.08;1.75;;;;;;;;;;4992533;28;20050;-75
2022/06/08 04:43:35;;;;;;;6.82;2.78;;;;;;;;;;4986702;28;20100;-75
2022/06/08 04:46:01;;;;;;;4.95;2.20;;;;;;;;;;4978662;28;20022;-75
2022/06/08 04:48:27;;;;;;;3.90;2.10;;;;;;;;;;4987701;28;20694;-76
2022/06/08 04:50:53;;;;;;;5.88;1.98;;;;;;;;;;4985752;28;20038;-76
2022/06/08 04:53:19;;;;;;;3.03;1.80;;;;;;;;;;4984065;28;20022;-76
2022/06/08 04:55:46;;;;;;;4.15;2.13;;;;;;;;;;4984039;28;20030;-75
2022/06/08 04:58:12;;;;;;;6.30;1.83;;;;;;;;;;4984037;28;20033;-75
2022/06/08 05:00:38;;;;;;;4.15;1.75;;;;;;;;;;4986274;28;20519;-75
2022/06/08 05:03:04;;;;;;;2.88;2.20;;;;;;;;;;4997065;28;20017;-75
2022/06/08 05:05:30;;;;;;;4.63;2.22;;;;;;;;;;4987095;28;20078;-75
2022/06/08 05:07:56;;;;;;;4.88;2.10;;;;;;;;;;4988393;28;20108;-75
2022/06/08 05:10:23;;;;;;;3.38;1.90;;;;;;;;;;4998096;28;20030;-75
2022/06/08 05:12:49;;;;;;;4.13;2.00;;;;;;;;;;4980698;28;20117;-75
2022/06/08 05:15:17;;;;;;;3.20;2.17;;;;;;;;;;4985180;28;20045;-74
2022/06/08 05:17:43;;;;;;;4.10;2.05;;;;;;;;;;4988286;28;20031;-75
2022/06/08 05:20:11;;;;;;;3.83;1.83;;;;;;;;;;5004344;28;20495;-75
2022/06/08 05:22:37;;;;;;;3.60;2.00;;;;;;;;;;4988272;28;20061;-76
2022/06/08 05:25:04;;;;;;;5.53;1.95;;;;;;;;;;4994427;28;20077;-75
2022/06/08 05:27:31;;;;;;;3.83;2.15;;;;;;;;;;4990101;28;20432;-75
2022/06/08 05:29:57;;;;;;;2.78;1.90;;;;;;;;;;4990302;28;20033;-76
2022/06/08 05:32:23;;;;;;;4.68;1.80;;;;;;;;;;4986875;28;20384;-76
2022/06/08 05:34:49;;;;;;;3.33;2.03;;;;;;;;;;4991336;28;20021;-75
2022/06/08 05:37:15;;;;;;;3.92;2.05;;;;;;;;;;4987423;28;20026;-75
2022/06/08 05:39:41;;;;;;;3.60;1.65;;;;;;;;;;4989630;28;20027;-75
2022/06/08 05:42:08;;;;;;;5.35;2.00;;;;;;;;;;4999838;28;20098;-75
2022/06/08 05:44:34;;;;;;;6.13;2.17;;;;;;;;;;4991034;28;20425;-75
2022/06/08 05:47:00;;;;;;;3.70;2.17;;;;;;;;;;4994403;28;20034;-76
2022/06/08 05:49:26;;;;;;;2.45;1.60;;;;;;;;;;4996003;28;20037;-75
2022/06/08 05:51:53;;;;;;;3.55;1.90;;;;;;;;;;4984730;28;20034;-75
2022/06/08 05:54:19;;;;;;;4.45;1.80;;;;;;;;;;4998497;28;20030;-75
2022/06/08 05:56:45;;;;;;;7.20;2.20;;;;;;;;;;4992535;28;20030;-75
2022/06/08 05:59:11;;;;;;;4.78;2.70;;;;;;;;;;4991184;28;20036;-73
2022/06/08 06:01:38;;;;;;;4.50;2.22;;;;;;;;;;4984712;28;20062;-75
2022/06/08 06:04:07;;;;;;;3.08;1.90;;;;;;;;;;4987291;28;20026;-75
2022/06/08 06:06:33;;;;;;;7.40;2.45;;;;;;;;;;4985612;28;20085;-75
2022/06/08 06:08:59;;;;;;;5.30;2.38;;;;;;;;;;4989249;28;20030;-74
2022/06/08 06:11:26;;;;;;;6.97;2.25;;;;;;;;;;5002143;28;20137;-75
2022/06/08 06:13:52;;;;;;;6.18;2.47;;;;;;;;;;4985736;28;20030;-75
2022/06/08 06:16:18;;;;;;;3.70;2.17;;;;;;;;;;4991986;28;20080;-75
2022/06/08 06:18:44;;;;;;;6.20;2.10;;;;;;;;;;4983929;28;20033;-75
2022/06/08 06:21:15;;;;;;;3.63;1.98;;;;;;;;;;4988880;28;20023;-75
2022/06/08 06:23:41;;;;;;;2.80;2.17;;;;;;;;;;4989216;28;20061;-75
2022/06/08 06:26:07;;;;;;;9.18;2.72;;;;;;;;;;4987091;28;20032;-75
2022/06/08 06:28:33;;;;;;;3.85;1.95;;;;;;;;;;4986351;28;20044;-76
2022/06/08 06:30:59;;;;;;;7.38;2.58;;;;;;;;;;4980634;28;20030;-75
2022/06/08 06:33:25;;;;;;;4.60;2.10;;;;;;;;;;4980413;28;20030;-77
2022/06/08 06:35:51;;;;;;;5.72;2.17;;;;;;;;;;4979809;28;20101;-75
2022/06/08 06:38:17;;;;;;;4.53;2.17;;;;;;;;;;4999836;28;20113;-76
2022/06/08 06:40:43;;;;;;;4.22;1.85;;;;;;;;;;4980832;28;20074;-75
2022/06/08 06:43:10;;;;;;;3.38;1.95;;;;;;;;;;4991220;28;20045;-75
2022/06/08 06:45:37;;;;;;;4.38;2.00;;;;;;;;;;4979260;28;20058;-75
2022/06/08 06:48:03;;;;;;;2.40;1.80;;;;;;;;;;4986762;28;20052;-75
2022/06/08 06:50:29;;;;;;;2.78;1.70;;;;;;;;;;4986142;28;20022;-75
2022/06/08 06:52:55;;;;;;;5.35;1.80;;;;;;;;;;4984976;28;20101;-75
2022/06/08 06:55:24;;;;;;;3.60;2.22;;;;;;;;;;4981256;28;20477;-75
2022/06/08 06:57:51;;;;;;;2.92;2.03;;;;;;;;;;4990712;28;20530;-75
2022/06/08 07:00:17;;;;;;;5.63;2.15;;;;;;;;;;4982159;28;20073;-75
2022/06/08 07:02:44;;;;;;;3.38;2.00;;;;;;;;;;4983930;28;20377;-76
2022/06/08 07:05:15;;;;;;;4.97;2.03;;;;;;;;;;4976011;28;20018;-75
2022/06/08 07:07:41;;;;;;;5.30;2.20;;;;;;;;;;4983496;28;20058;-75
2022/06/08 07:10:08;;;;;;;3.70;1.88;;;;;;;;;;4988141;28;20053;-76
2022/06/08 07:12:34;;;;;;;6.00;2.42;;;;;;;;;;4984658;28;20038;-76
2022/06/08 07:15:00;;;;;;;3.55;2.20;;;;;;;;;;4986050;28;20022;-75
2022/06/08 07:17:26;;;;;;;6.60;2.50;;;;;;;;;;4981878;28;20523;-75
2022/06/08 07:19:53;;;;;;;4.25;2.50;;;;;;;;;;4979029;28;20037;-76
2022/06/08 07:22:19;;;;;;;4.97;2.60;;;;;;;;;;4979632;28;20109;-75
2022/06/08 07:24:45;;;;;;;5.00;2.40;;;;;;;;;;4982351;28;21218;-76
2022/06/08 07:27:11;;;;;;;6.07;2.33;;;;;;;;;;4984682;28;20558;-76
2022/06/08 07:29:38;;;;;;;3.80;2.08;;;;;;;;;;4996663;28;20026;-75
2022/06/08 07:32:05;;;;;;;4.45;2.00;;;;;;;;;;4980219;28;20163;-75
2022/06/08 07:34:31;;;;;;;4.38;1.77;;;;;;;;;;5000161;28;20184;-75
2022/06/08 07:36:57;;;;;;;2.95;1.88;;;;;;;;;;4979265;28;20073;-75
2022/06/08 07:39:24;;;;;;;5.97;2.50;;;;;;;;;;4989053;28;20075;-76
2022/06/08 07:41:51;;;;;;;2.53;2.00;;;;;;;;;;4990738;28;20022;-76
2022/06/08 07:44:18;;;;;;;3.78;1.80;;;;;;;;;;4992852;28;20092;-76
2022/06/08 07:46:44;;;;;;;3.92;2.22;;;;;;;;;;4978183;28;20030;-74
2022/06/08 07:49:37;;;;;;;3.00;2.70;;;;;;;;;;4989405;28;20029;-75
2022/06/08 07:52:09;;;;;;;3.78;1.73;;;;;;;;;;4982725;28;20048;-74
2022/06/08 07:54:35;;;;;;;5.97;1.90;;;;;;;;;;4988209;28;20109;-75
2022/06/08 07:57:02;;;;;;;2.17;1.67;;;;;;;;;;4983605;28;20019;-75
2022/06/08 07:59:29;;;;;;;2.45;1.80;;;;;;;;;;4989024;28;20038;-75
2022/06/08 08:01:55;;;;;;;2.88;2.05;;;;;;;;;;4980991;28;20077;-75
2022/06/08 08:04:21;;;;;;;2.88;1.92;;;;;;;;;;4985629;28;20030;-75
2022/06/08 08:06:47;;;;;;;2.70;2.10;;;;;;;;;;4987238;28;20030;-74
2022/06/08 08:09:17;;;;;;;4.55;2.10;;;;;;;;;;4989548;28;20080;-74
2022/06/08 08:11:45;;;;;;;3.83;2.20;;;;;;;;;;4987775;28;20026;-75
2022/06/08 08:14:12;;;;;;;3.17;2.42;;;;;;;;;;4981121;28;20027;-75
2022/06/08 08:16:38;;;;;;;4.78;2.28;;;;;;;;;;4982843;28;20022;-75
2022/06/08 08:19:05;;;;;;;2.92;2.40;;;;;;;;;;4980669;28;20504;-74
2022/06/08 08:21:32;;;;;;;4.70;1.90;;;;;;;;;;4984615;28;20090;-75
2022/06/08 08:23:59;;;;;;;4.20;2.10;;;;;;;;;;4986423;28;20021;-76
2022/06/08 08:26:25;;;;;;;4.18;2.13;;;;;;;;;;4986335;28;20019;-75
2022/06/08 08:28:51;;;;;;;6.03;2.85;;;;;;;;;;4981541;28;20034;-75
2022/06/08 08:31:17;;;;;;;3.20;1.92;;;;;;;;;;4985807;28;20057;-76
2022/06/08 08:33:43;;;;;;;5.10;2.00;;;;;;;;;;4986746;28;20038;-74
2022/06/08 08:36:10;;;;;;;6.55;2.55;;;;;;;;;;4981098;28;20031;-72
2022/06/08 08:38:36;;;;;;;6.10;2.55;;;;;;;;;;4986561;28;20131;-75
2022/06/08 08:41:02;;;;;;;2.33;1.67;;;;;;;;;;4983192;28;20027;-75
2022/06/08 08:43:31;;;;;;;3.50;1.75;;;;;;;;;;4984687;28;20026;-76
2022/06/08 08:46:06;;;;;;;4.22;2.20;;;;;;;;;;4980518;28;20162;-74
2022/06/08 08:48:43;;;;;;;4.90;1.90;;;;;;;;;;4984918;28;20076;-75
2022/06/08 08:51:23;;;;;;;6.43;2.20;;;;;;;;;;4986842;28;20030;-75
2022/06/08 08:53:50;;;;;;;4.20;2.42;;;;;;;;;;4979789;28;20028;-75
2022/06/08 08:56:25;;;;;;;4.57;2.03;;;;;;;;;;4984074;28;20018;-75
2022/06/08 08:58:52;;;;;;;4.18;2.30;;;;;;;;;;4982734;28;20025;-75
2022/06/08 09:01:20;;;;;;;3.15;1.80;;;;;;;;;;4984291;28;20054;-75
2022/06/08 09:03:46;;;;;;;4.72;2.05;;;;;;;;;;4984034;28;20037;-75
2022/06/08 09:06:12;;;;;;;3.83;2.10;;;;;;;;;;4982187;28;20026;-76
2022/06/08 09:08:39;;;;;;;4.05;1.98;;;;;;;;;;4984261;28;20034;-75
2022/06/08 09:11:10;;;;;;;4.95;2.42;;;;;;;;;;4979314;28;20547;-75
2022/06/08 09:13:47;;;;;;;4.72;2.25;;;;;;;;;;4985236;28;20085;-75
2022/06/08 09:16:38;;;;;;;7.95;2.28;;;;;;;;;;4981667;28;20149;-74
2022/06/08 09:19:22;;;;;;;4.15;2.05;;;;;;;;;;4982246;28;20420;-75
2022/06/08 09:21:49;;;;;;;4.72;2.15;;;;;;;;;;4987240;28;20503;-75
2022/06/08 09:24:25;;;;;;;5.80;2.20;;;;;;;;;;4987798;28;20064;-77
2022/06/08 09:26:55;;;;;;;4.57;2.20;;;;;;;;;;4984580;28;20026;-75
2022/06/08 09:29:23;;;;;;;5.85;2.08;;;;;;;;;;4983056;28;20034;-75
2022/06/08 09:31:50;;;;;;;5.00;2.53;;;;;;;;;;4982354;28;20022;-75
2022/06/08 09:34:34;;;;;;;3.10;2.15;;;;;;;;;;4983458;28;20050;-75
2022/06/08 09:37:06;;;;;;;2.20;1.70;;;;;;;;;;4988888;28;20096;-76
2022/06/08 09:39:33;;;;;;;4.57;1.90;;;;;;;;;;4987569;28;20614;-76
2022/06/08 09:42:00;;;;;;;6.30;2.00;;;;;;;;;;4986264;28;20113;-77
2022/06/08 09:44:26;;;;;;;2.67;2.22;;;;;;;;;;4988684;28;20039;-74
2022/06/08 09:52:32;;;;;;;3.58;2.42;;;;;;;;;;4990097;28;20109;-75
2022/06/08 09:55:14;;;;;;;3.97;1.83;;;;;;;;;;4988715;28;20073;-75
2022/06/08 09:57:49;;;;;;;4.47;2.42;;;;;;;;;;5002311;28;20117;-75
2022/06/08 10:00:40;;;;;;;3.80;2.00;;;;;;;;;;4991868;28;20035;-74
2022/06/08 10:03:29;;;;;;;4.82;1.70;;;;;;;;;;4987438;28;20341;-75
2022/06/08 10:06:07;;;;;;;3.97;2.13;;;;;;;;;;4988823;28;20026;-75
2022/06/08 10:08:47;;;;;;;6.72;2.00;;;;;;;;;;4990900;28;20083;-75
2022/06/08 10:11:34;;;;;;;2.47;1.60;;;;;;;;;;4990088;28;20517;-75
2022/06/08 10:14:22;;;;;;;6.07;2.10;;;;;;;;;;4989015;28;20041;-75
2022/06/08 10:16:53;;;;;;;2.47;1.77;;;;;;;;;;4985487;28;20515;-75
2022/06/08 10:19:34;;;;;;;4.00;2.65;;;;;;;;;;4990395;28;20380;-76
2022/06/08 10:22:01;;;;;;;4.57;2.55;;;;;;;;;;4999592;28;20050;-75
2022/06/08 10:24:47;;;;;;;4.20;3.08;;;;;;;;;;4990395;28;20105;-75
2022/06/08 10:27:19;;;;;;;4.38;1.60;;;;;;;;;;4984453;28;20088;-75
2022/06/08 10:30:12;;;;;;;1.23;1.23;;;;;;;;;;4981823;28;20511;-76
2022/06/08 10:33:01;;;;;;;2.08;1.60;;;;;;;;;;4970138;28;20054;-75
2022/06/08 10:35:56;;;;;;;5.35;1.88;;;;;;;;;;4973237;28;20042;-76
2022/06/08 10:38:33;;;;;;;5.03;1.83;;;;;;;;;;4974581;28;20039;-75
2022/06/08 10:44:03;;;;;;;4.93;1.80;;;;;;;;;;4987202;28;20098;-75
2022/06/08 10:46:32;;;;;;;4.00;1.83;;;;;;;;;;4981362;28;20034;-74
2022/06/08 10:48:58;;;;;;;5.95;1.75;;;;;;;;;;4979588;28;20081;-75
2022/06/08 10:51:27;;;;;;;3.97;1.58;;;;;;;;;;4979824;28;20081;-75
2022/06/08 10:56:55;;;;;;;4.07;1.63;;;;;;;;;;4980397;28;20784;-77
2022/06/08 10:59:24;;;;;;;2.95;1.77;;;;;;;;;;4993472;28;20080;-76
2022/06/08 11:01:50;;;;;;;2.10;1.63;;;;;;;;;;4992550;28;20488;-77
2022/06/08 11:04:35;;;;;;;3.90;2.10;;;;;;;;;;4980247;28;20503;-76
2022/06/08 11:07:22;;;;;;;2.17;1.67;;;;;;;;;;4986146;28;20058;-76
2022/06/08 11:09:52;;;;;;;1.95;1.70;;;;;;;;;;4979399;28;20294;-76
2022/06/08 11:12:27;;;;;;;4.60;2.00;;;;;;;;;;4980274;28;20177;-76
2022/06/08 11:14:57;;;;;;;2.03;1.40;;;;;;;;;;4990866;28;20014;-76
2022/06/08 11:17:26;;;;;;;1.17;1.15;;;;;;;;;;4994069;28;20026;-76
2022/06/08 11:19:54;;;;;;;0.95;0.95;;;;;;;;;;4990241;28;20023;-76
2022/06/08 11:22:22;;;;;;;1.60;1.25;;;;;;;;;;4989144;28;20097;-76
2022/06/08 11:24:54;;;;;;;1.52;1.42;;;;;;;;;;4989637;28;20042;-76
2022/06/08 11:27:36;;;;;;;2.88;2.00;;;;;;;;;;4975779;28;20444;-76
2022/06/08 11:30:02;;;;;;;2.35;1.50;;;;;;;;;;4988651;28;20484;-76
2022/06/08 11:32:28;;;;;;;3.35;1.55;;;;;;;;;;4989551;28;20053;-76
2022/06/08 11:35:13;;;;;;;2.53;1.75;;;;;;;;;;4999996;28;20587;-76
2022/06/08 11:37:47;;;;;;;4.07;1.92;;;;;;;;;;4990540;28;20027;-76
2022/06/08 11:40:14;;;;;;;2.10;1.90;;;;;;;;;;5004361;28;20030;-76
2022/06/08 11:42:51;;;;;;;5.32;2.20;;;;;;;;;;4988588;28;20029;-77
2022/06/08 11:45:18;;;;;;;4.90;2.08;;;;;;;;;;4985758;28;20428;-77
2022/06/08 11:48:04;;;;;;;3.80;1.70;;;;;;;;;;4983743;28;20026;-76
2022/06/08 11:50:32;;;;;;;4.15;2.53;;;;;;;;;;4983766;28;20053;-76
2022/06/08 11:53:06;;;;;;;4.13;1.80;;;;;;;;;;4981580;28;20481;-77
2022/06/08 11:55:35;;;;;;;4.65;1.90;;;;;;;;;;4981593;28;20436;-76
2022/06/08 11:58:10;;;;;;;4.15;2.17;;;;;;;;;;4982318;28;20022;-76
2022/06/08 12:00:56;;;;;;;4.90;1.98;;;;;;;;;;4980933;28;20272;-76
2022/06/08 12:03:27;;;;;;;3.53;2.30;;;;;;;;;;4981073;28;20026;-77
2022/06/08 12:06:01;;;;;;;4.70;3.03;;;;;;;;;;4983022;28;20085;-77
2022/06/08 12:08:33;;;;;;;4.15;2.10;;;;;;;;;;4985762;28;20026;-77
2022/06/08 12:10:59;;;;;;;5.55;1.98;;;;;;;;;;4981348;28;20095;-76
2022/06/08 12:13:25;;;;;;;4.45;2.00;;;;;;;;;;4980869;28;20111;-77
2022/06/08 12:15:52;;;;;;;8.57;2.10;;;;;;;;;;4978567;28;20038;-76
2022/06/08 12:18:37;;;;;;;5.22;2.35;;;;;;;;;;4981275;28;20431;-77
2022/06/08 12:21:08;;;;;;;4.80;2.30;;;;;;;;;;4982142;28;20030;-77
2022/06/08 12:23:39;;;;;;;8.85;3.03;;;;;;;;;;4981296;28;20058;-76
2022/06/08 12:26:05;;;;;;;4.65;2.05;;;;;;;;;;4979526;28;20323;-76
2022/06/08 12:28:31;;;;;;;6.88;2.83;;;;;;;;;;4978536;28;20027;-76
2022/06/08 12:30:58;;;;;;;4.68;2.17;;;;;;;;;;4983363;28;20034;-76
2022/06/08 12:33:24;;;;;;;6.07;1.95;;;;;;;;;;4978978;28;20641;-76
2022/06/08 12:35:53;;;;;;;5.03;2.70;;;;;;;;;;4980982;28;20037;-76
2022/06/08 12:38:20;;;;;;;6.43;2.22;;;;;;;;;;4983812;28;21338;-76
2022/06/08 12:41:01;;;;;;;4.10;2.40;;;;;;;;;;4981643;28;20061;-77
2022/06/08 12:43:42;;;;;;;5.47;2.30;;;;;;;;;;4987063;28;20102;-76
2022/06/08 12:46:17;;;;;;;4.85;2.65;;;;;;;;;;4987599;28;20037;-77
2022/06/08 12:48:56;;;;;;;3.95;2.08;;;;;;;;;;4988289;28;20030;-76
2022/06/08 12:51:22;;;;;;;8.70;2.42;;;;;;;;;;4989427;28;20030;-76
2022/06/08 12:53:48;;;;;;;9.07;2.50;;;;;;;;;;4995489;28;20492;-77
2022/06/08 12:56:17;;;;;;;4.90;2.58;;;;;;;;;;4989338;28;20103;-75
2022/06/08 12:58:44;;;;;;;6.65;2.75;;;;;;;;;;4990922;28;20353;-76
2022/06/08 13:01:10;;;;;;;4.88;2.97;;;;;;;;;;4982826;28;20046;-76
2022/06/08 13:03:36;;;;;;;6.65;2.65;;;;;;;;;;4983167;28;20022;-77
2022/06/08 13:06:03;;;;;;;7.72;2.50;;;;;;;;;;4987592;28;20032;-78
2022/06/08 13:08:29;;;;;;;3.55;2.20;;;;;;;;;;4979912;28;20408;-76
2022/06/08 13:10:59;;;;;;;5.85;2.10;;;;;;;;;;4985969;28;20038;-76
2022/06/08 13:13:29;;;;;;;9.43;3.08;;;;;;;;;;4983727;28;20042;-76
2022/06/08 13:15:57;;;;;;;5.60;2.10;;;;;;;;;;4983789;28;20139;-76
2022/06/08 13:18:24;;;;;;;5.78;2.00;;;;;;;;;;4981663;28;20101;-76
2022/06/08 13:20:52;;;;;;;3.97;1.95;;;;;;;;;;4982561;28;20075;-75
2022/06/08 13:23:18;;;;;;;3.75;1.95;;;;;;;;;;4983644;28;20069;-75
2022/06/08 13:25:46;;;;;;;7.68;2.50;;;;;;;;;;4984545;28;20026;-76
2022/06/08 13:28:20;;;;;;;4.47;1.92;;;;;;;;;;4983465;28;20431;-75
2022/06/08 13:30:48;;;;;;;4.88;2.33;;;;;;;;;;4982000;28;20034;-74
2022/06/08 13:34:02;;;;;;;4.68;2.33;;;;;;;;;;4980924;28;20030;-75
2022/06/08 13:36:06;;;;;;;7.78;2.40;;;;;;;;;;4983567;28;20104;-73
2022/06/08 13:38:32;;;;;;;6.25;2.67;;;;;;;;;;4980576;28;20129;-75
2022/06/08 13:41:00;;;;;;;6.38;2.65;;;;;;;;;;4983133;28;20062;-75
2022/06/08 13:43:27;;;;;;;4.50;2.80;;;;;;;;;;4982381;28;20027;-75
2022/06/08 13:45:53;;;;;;;5.32;2.50;;;;;;;;;;4988199;28;20484;-75
2022/06/08 13:48:21;;;;;;;6.80;2.70;;;;;;;;;;4989064;28;20045;-78
2022/06/08 13:50:49;;;;;;;5.20;2.10;;;;;;;;;;4983136;28;20030;-78
2022/06/08 13:53:18;;;;;;;5.70;2.58;;;;;;;;;;4983440;28;20045;-75
2022/06/08 13:55:46;;;;;;;4.68;2.33;;;;;;;;;;4985176;28;20037;-77
2022/06/08 13:58:13;;;;;;;7.43;2.00;;;;;;;;;;4987632;28;20061;-77
2022/06/08 14:00:41;;;;;;;3.72;2.05;;;;;;;;;;4982246;28;20456;-76
2022/06/08 14:03:09;;;;;;;6.07;2.13;;;;;;;;;;4983351;28;20421;-75
2022/06/08 14:13:53;;;;;;;3.95;2.10;;;;;;;;;;4988553;28;20041;-77
2022/06/08 14:16:20;;;;;;;5.28;2.55;;;;;;;;;;4984932;28;20026;-75
2022/06/08 14:18:48;;;;;;;10.15;2.75;;;;;;;;;;4987402;28;20037;-78
2022/06/08 14:21:15;;;;;;;8.75;2.67;;;;;;;;;;4987052;28;20022;-77
2022/06/08 14:23:44;;;;;;;7.05;3.13;;;;;;;;;;4987666;28;20026;-76
2022/06/08 14:26:20;;;;;;;6.30;2.42;;;;;;;;;;4986740;28;20041;-73
2022/06/08 14:28:47;;;;;;;6.32;2.20;;;;;;;;;;4989583;28;20061;-76
2022/06/08 14:31:25;;;;;;;7.03;2.38;;;;;;;;;;4981422;28;20037;-77
2022/06/08 14:33:51;;;;;;;5.93;2.55;;;;;;;;;;4989033;28;20027;-76
2022/06/08 14:36:22;;;;;;;3.20;2.03;;;;;;;;;;4985732;28;20056;-76
2022/06/08 14:38:49;;;;;;;6.32;2.30;;;;;;;;;;4992410;28;20109;-76
2022/06/08 14:41:15;;;;;;;4.55;2.20;;;;;;;;;;4991403;28;20057;-76
2022/06/08 14:43:42;;;;;;;5.80;2.30;;;;;;;;;;4995115;28;20064;-76
2022/06/08 14:46:17;;;;;;;8.60;2.00;;;;;;;;;;4996618;28;20022;-76
2022/06/08 14:48:45;;;;;;;8.57;2.65;;;;;;;;;;4989107;28;20026;-76
2022/06/08 14:51:14;;;;;;;7.78;2.47;;;;;;;;;;4990408;28;20037;-78
2022/06/08 14:53:40;;;;;;;5.65;2.33;;;;;;;;;;4989689;28;20030;-78
2022/06/08 14:56:26;;;;;;;6.30;2.33;;;;;;;;;;4991190;28;20498;-77
2022/06/08 14:59:00;;;;;;;9.68;2.58;;;;;;;;;;4995861;28;20526;-76
2022/06/08 15:01:29;;;;;;;6.07;2.30;;;;;;;;;;4984112;28;20570;-76
2022/06/08 15:03:55;;;;;;;6.63;2.25;;;;;;;;;;4988042;28;20018;-76
2022/06/08 15:06:22;;;;;;;4.60;2.08;;;;;;;;;;4982762;28;20551;-78
2022/06/08 15:08:48;;;;;;;4.03;1.98;;;;;;;;;;4991624;28;20122;-77
2022/06/08 15:14:42;;;;;;;6.43;2.30;;;;;;;;;;4984950;28;20544;-76
2022/06/08 15:17:12;;;;;;;5.35;2.20;;;;;;;;;;4981345;28;20038;-76
2022/06/08 15:19:40;;;;;;;6.82;2.22;;;;;;;;;;4987457;28;20030;-76
2022/06/08 15:22:08;;;;;;;4.40;2.85;;;;;;;;;;4980351;28;20515;-76
2022/06/08 15:24:35;;;;;;;5.30;2.17;;;;;;;;;;4990450;28;20437;-77